createdAt,value
2022-10-19T00:01:13.221Z,14.80
2022-10-19T00:03:40.461Z,14.80
2022-10-19T00:06:15.955Z,14.80
2022-10-19T00:08:43.309Z,14.80
2022-10-19T00:11:11.498Z,14.80
2022-10-19T00:13:38.669Z,14.70
2022-10-19T00:16:11.408Z,14.70
2022-10-19T00:18:40.465Z,14.70
2022-10-19T00:21:08.293Z,14.70
2022-10-19T00:23:36.250Z,14.70
2022-10-19T00:26:03.101Z,14.70
2022-10-19T00:28:50.591Z,14.70
2022-10-19T00:31:17.900Z,14.70
2022-10-19T00:34:05.145Z,14.70
2022-10-19T00:36:36.859Z,14.70
2022-10-19T00:39:04.434Z,14.70
2022-10-19T00:41:33.858Z,14.60
2022-10-19T00:44:01.755Z,14.60
2022-10-19T00:46:30.210Z,14.50
2022-10-19T00:49:04.874Z,14.30
2022-10-19T00:51:35.622Z,14.20
2022-10-19T00:54:04.062Z,14.10
2022-10-19T00:56:31.538Z,14.00
2022-10-19T00:58:58.986Z,14.00
2022-10-19T01:01:28.241Z,14.10
2022-10-19T01:03:55.881Z,14.10
2022-10-19T01:06:24.022Z,14.10
2022-10-19T01:08:50.875Z,14.00
2022-10-19T01:11:37.233Z,14.00
2022-10-19T01:14:22.953Z,14.00
2022-10-19T01:16:53.194Z,13.90
2022-10-19T01:19:38.850Z,13.90
2022-10-19T01:22:05.645Z,13.90
2022-10-19T01:24:38.449Z,13.80
2022-10-19T01:27:10.448Z,13.80
2022-10-19T01:29:57.539Z,13.70
2022-10-19T01:32:27.474Z,13.70
2022-10-19T01:35:01.358Z,13.70
2022-10-19T01:37:31.331Z,13.70
2022-10-19T01:40:15.555Z,13.70
2022-10-19T01:43:03.702Z,13.60
2022-10-19T01:45:42.136Z,13.60
2022-10-19T01:48:14.829Z,13.50
2022-10-19T01:50:51.102Z,13.50
2022-10-19T01:56:08.611Z,13.40
2022-10-19T01:58:37.283Z,13.40
2022-10-19T02:01:05.623Z,13.40
2022-10-19T02:03:34.425Z,13.30
2022-10-19T02:06:02.900Z,13.30
2022-10-19T02:08:40.935Z,13.30
2022-10-19T02:11:08.054Z,13.20
2022-10-19T02:13:35.600Z,13.20
2022-10-19T02:16:06.663Z,13.10
2022-10-19T02:18:36.595Z,13.20
2022-10-19T02:21:04.986Z,13.10
2022-10-19T02:23:32.341Z,13.10
2022-10-19T02:25:59.836Z,13.00
2022-10-19T02:28:28.184Z,13.00
2022-10-19T02:30:56.099Z,13.10
2022-10-19T02:33:23.473Z,13.10
2022-10-19T02:35:50.287Z,13.10
2022-10-19T02:38:20.303Z,13.20
2022-10-19T02:40:52.239Z,13.20
2022-10-19T02:43:21.885Z,13.10
2022-10-19T02:45:52.306Z,13.10
2022-10-19T02:48:22.251Z,13.20
2022-10-19T02:50:49.201Z,13.10
2022-10-19T02:53:16.587Z,13.10
2022-10-19T02:55:43.887Z,13.10
2022-10-19T02:58:10.665Z,13.10
2022-10-19T03:00:38.070Z,13.10
2022-10-19T03:03:05.736Z,13.20
2022-10-19T03:05:32.557Z,13.20
2022-10-19T03:08:00.386Z,13.30
2022-10-19T03:10:27.514Z,13.30
2022-10-19T03:12:54.763Z,13.30
2022-10-19T03:15:24.958Z,13.40
2022-10-19T03:17:56.680Z,13.40
2022-10-19T03:20:23.593Z,13.30
2022-10-19T03:25:18.353Z,13.40
2022-10-19T03:27:45.963Z,13.40
2022-10-19T03:30:12.811Z,13.40
2022-10-19T03:32:40.472Z,13.40
2022-10-19T03:35:07.636Z,13.40
2022-10-19T03:37:35.629Z,13.30
2022-10-19T03:40:02.725Z,13.30
2022-10-19T03:42:30.223Z,13.30
2022-10-19T03:44:57.604Z,13.40
2022-10-19T03:47:24.499Z,13.30
2022-10-19T03:49:52.271Z,13.40
2022-10-19T03:52:20.043Z,13.40
2022-10-19T03:54:49.732Z,13.40
2022-10-19T03:57:17.120Z,13.40
2022-10-19T03:59:43.939Z,13.40
2022-10-19T04:02:11.586Z,13.40
2022-10-19T04:04:38.477Z,13.40
2022-10-19T04:07:06.363Z,13.40
2022-10-19T04:09:33.408Z,13.40
2022-10-19T04:12:01.219Z,13.40
2022-10-19T04:14:33.125Z,13.30
2022-10-19T04:17:06.333Z,13.30
2022-10-19T04:19:33.627Z,13.20
2022-10-19T04:22:00.815Z,13.20
2022-10-19T04:24:28.143Z,13.10
2022-10-19T04:26:55.549Z,12.90
2022-10-19T04:29:27.865Z,12.90
2022-10-19T04:32:00.142Z,12.80
2022-10-19T04:34:27.550Z,12.80
2022-10-19T04:36:54.824Z,12.80
2022-10-19T04:39:22.039Z,12.80
2022-10-19T04:41:48.806Z,12.80
2022-10-19T04:44:16.817Z,12.80
2022-10-19T04:46:43.696Z,12.80
2022-10-19T04:49:13.168Z,12.70
2022-10-19T04:51:41.507Z,12.50
2022-10-19T04:54:08.843Z,12.40
2022-10-19T04:56:36.277Z,12.20
2022-10-19T04:59:03.759Z,12.20
2022-10-19T05:01:31.418Z,12.10
2022-10-19T05:03:59.527Z,12.00
2022-10-19T05:06:27.172Z,12.00
2022-10-19T05:08:54.669Z,11.90
2022-10-19T05:11:21.694Z,11.90
2022-10-19T05:13:49.300Z,11.80
2022-10-19T05:16:21.183Z,11.80
2022-10-19T05:18:49.170Z,11.70
2022-10-19T05:21:16.714Z,11.70
2022-10-19T05:23:44.352Z,11.70
2022-10-19T05:26:12.934Z,11.80
2022-10-19T05:28:40.718Z,11.80
2022-10-19T05:31:08.675Z,11.80
2022-10-19T05:33:36.673Z,11.90
2022-10-19T05:36:39.012Z,11.90
2022-10-19T05:39:09.958Z,11.80
2022-10-19T05:41:37.325Z,11.90
2022-10-19T05:44:05.131Z,11.90
2022-10-19T05:46:32.612Z,11.90
2022-10-19T05:48:59.597Z,11.90
2022-10-19T05:51:28.174Z,11.90
2022-10-19T05:53:56.191Z,11.90
2022-10-19T05:56:27.184Z,11.90
2022-10-19T05:58:56.235Z,12.00
2022-10-19T06:01:23.184Z,12.00
2022-10-19T06:03:54.303Z,12.10
2022-10-19T06:06:21.837Z,12.10
2022-10-19T06:08:49.014Z,12.00
2022-10-19T06:11:17.600Z,12.10
2022-10-19T06:13:45.859Z,12.10
2022-10-19T06:16:13.729Z,12.00
2022-10-19T06:18:41.974Z,12.00
2022-10-19T06:21:13.214Z,11.90
2022-10-19T06:26:14.199Z,12.00
2022-10-19T06:28:42.186Z,12.10
2022-10-19T06:31:11.092Z,12.20
2022-10-19T06:33:39.315Z,12.20
2022-10-19T06:36:14.333Z,12.30
2022-10-19T06:38:41.441Z,12.30
2022-10-19T06:41:08.642Z,12.40
2022-10-19T06:43:35.740Z,12.40
2022-10-19T06:46:10.468Z,12.40
2022-10-19T06:48:37.531Z,12.50
2022-10-19T06:51:06.355Z,12.50
2022-10-19T06:53:34.905Z,12.50
2022-10-19T06:56:02.233Z,12.50
2022-10-19T06:58:29.821Z,12.60
2022-10-19T07:00:57.241Z,12.60
2022-10-19T07:03:25.178Z,12.60
2022-10-19T07:05:53.412Z,12.70
2022-10-19T07:08:20.175Z,12.70
2022-10-19T07:10:51.014Z,12.80
2022-10-19T07:13:18.461Z,12.70
2022-10-19T07:15:45.493Z,12.70
2022-10-19T07:18:12.674Z,12.70
2022-10-19T07:20:39.411Z,12.70
2022-10-19T07:23:06.887Z,12.60
2022-10-19T07:25:33.813Z,12.60
2022-10-19T07:28:00.895Z,12.60
2022-10-19T07:30:28.425Z,12.60
2022-10-19T07:32:55.313Z,12.70
2022-10-19T07:35:23.149Z,12.60
2022-10-19T07:37:50.111Z,12.60
2022-10-19T07:40:17.134Z,12.50
2022-10-19T07:42:43.958Z,12.50
2022-10-19T07:45:11.116Z,12.50
2022-10-19T07:47:38.424Z,12.50
2022-10-19T07:50:05.432Z,12.60
2022-10-19T07:52:36.028Z,12.60
2022-10-19T07:55:04.159Z,12.70
2022-10-19T07:57:31.273Z,12.80
2022-10-19T07:59:58.014Z,12.80
2022-10-19T08:02:30.907Z,12.90
2022-10-19T08:05:11.709Z,13.00
2022-10-19T08:07:39.867Z,13.00
2022-10-19T08:10:06.971Z,13.00
2022-10-19T08:12:35.682Z,12.90
2022-10-19T08:15:02.733Z,13.00
2022-10-19T08:17:29.466Z,13.10
2022-10-19T08:19:56.751Z,13.10
2022-10-19T08:22:23.532Z,13.10
2022-10-19T08:24:50.651Z,13.10
2022-10-19T08:27:17.373Z,12.90
2022-10-19T08:29:44.622Z,12.90
2022-10-19T08:32:11.451Z,12.90
2022-10-19T08:34:38.559Z,13.00
2022-10-19T08:37:14.713Z,13.10
2022-10-19T08:39:52.526Z,13.10
2022-10-19T08:42:40.998Z,13.10
2022-10-19T08:45:14.708Z,13.20
2022-10-19T08:47:47.701Z,13.30
2022-10-19T08:50:18.259Z,13.30
2022-10-19T08:52:47.473Z,13.30
2022-10-19T08:55:19.648Z,13.30
2022-10-19T08:57:58.390Z,13.40
2022-10-19T09:00:28.610Z,13.50
2022-10-19T09:02:55.720Z,13.50
2022-10-19T09:05:37.717Z,13.50
2022-10-19T09:08:04.506Z,13.40
2022-10-19T09:10:34.840Z,13.40
2022-10-19T09:13:10.805Z,13.50
2022-10-19T09:15:42.598Z,13.50
2022-10-19T09:18:10.965Z,13.70
2022-10-19T09:20:39.195Z,13.60
2022-10-19T09:23:13.523Z,13.70
2022-10-19T09:25:40.939Z,13.60
2022-10-19T09:28:17.385Z,13.60
2022-10-19T09:30:44.786Z,13.60
2022-10-19T09:33:16.067Z,13.70
2022-10-19T09:35:44.317Z,13.60
2022-10-19T09:38:12.678Z,13.70
2022-10-19T09:40:42.095Z,13.70
2022-10-19T09:43:20.272Z,13.70
2022-10-19T09:46:09.643Z,13.80
2022-10-19T09:48:46.969Z,13.90
2022-10-19T09:51:15.190Z,13.80
2022-10-19T09:53:45.780Z,13.90
2022-10-19T09:56:20.228Z,14.00
2022-10-19T09:58:48.010Z,14.10
2022-10-19T10:01:41.901Z,14.10
2022-10-19T10:04:09.862Z,14.10
2022-10-19T10:06:38.761Z,14.20
2022-10-19T10:09:05.674Z,14.20
2022-10-19T10:11:33.886Z,14.30
2022-10-19T10:14:09.815Z,14.40
2022-10-19T10:16:37.157Z,14.50
2022-10-19T10:19:08.062Z,14.60
2022-10-19T10:21:46.967Z,14.80
2022-10-19T10:24:13.678Z,14.90
2022-10-19T10:26:42.206Z,14.70
2022-10-19T10:29:20.432Z,14.80
2022-10-19T10:31:59.848Z,14.90
2022-10-19T10:34:51.915Z,15.00
2022-10-19T10:37:20.243Z,14.90
2022-10-19T10:39:50.923Z,14.70
2022-10-19T10:42:22.693Z,14.70
2022-10-19T10:44:51.262Z,14.70
2022-10-19T10:47:21.224Z,14.90
2022-10-19T10:49:57.488Z,15.10
2022-10-19T10:52:26.040Z,15.10
2022-10-19T10:55:08.130Z,15.00
2022-10-19T10:57:40.976Z,14.90
2022-10-19T11:00:12.347Z,14.90
2022-10-19T11:02:54.314Z,14.90
2022-10-19T11:05:40.817Z,14.90
2022-10-19T11:08:15.499Z,15.00
2022-10-19T11:10:49.489Z,15.00
2022-10-19T11:13:36.296Z,15.10
2022-10-19T11:16:06.514Z,15.20
2022-10-19T11:18:36.974Z,15.20
2022-10-19T11:21:12.364Z,15.30
2022-10-19T11:23:49.349Z,15.40
2022-10-19T11:26:34.789Z,15.30
2022-10-19T11:29:13.916Z,15.20
2022-10-19T11:31:53.000Z,15.20
2022-10-19T11:34:49.754Z,15.20
2022-10-19T11:37:25.347Z,15.20
2022-10-19T11:39:58.636Z,15.10
2022-10-19T11:42:25.327Z,15.10
2022-10-19T11:45:02.372Z,14.90
2022-10-19T11:47:51.747Z,14.90
2022-10-19T11:50:32.177Z,14.70
2022-10-19T11:53:02.281Z,14.70
2022-10-19T11:55:29.294Z,14.70
2022-10-19T11:58:06.862Z,14.80
2022-10-19T12:00:41.158Z,14.80
2022-10-19T12:03:17.772Z,14.80
2022-10-19T12:05:44.900Z,14.70
2022-10-19T12:08:24.249Z,14.80
2022-10-19T12:10:57.235Z,14.70
2022-10-19T12:13:28.488Z,14.60
2022-10-19T12:15:56.553Z,14.60
2022-10-19T12:18:35.729Z,14.60
2022-10-19T12:21:04.826Z,14.60
2022-10-19T12:23:36.414Z,14.50
2022-10-19T12:26:08.782Z,14.50
2022-10-19T12:28:37.325Z,14.50
2022-10-19T12:31:05.961Z,14.60
2022-10-19T12:33:41.059Z,14.60
2022-10-19T12:36:21.928Z,14.60
2022-10-19T12:39:01.142Z,14.60
2022-10-19T12:41:37.558Z,14.60
2022-10-19T12:44:07.667Z,14.70
2022-10-19T12:46:40.135Z,14.70
2022-10-19T12:49:26.263Z,14.70
2022-10-19T12:51:54.168Z,14.70
2022-10-19T12:54:25.107Z,14.70
2022-10-19T12:56:56.694Z,14.60
2022-10-19T12:59:23.460Z,14.60
2022-10-19T13:01:51.415Z,14.60
2022-10-19T13:04:22.720Z,14.50
2022-10-19T13:06:49.880Z,14.50
2022-10-19T13:09:35.223Z,14.50
2022-10-19T13:12:19.293Z,14.50
2022-10-19T13:14:57.826Z,14.50
2022-10-19T13:17:34.311Z,14.40
2022-10-19T13:20:13.896Z,14.40
2022-10-19T13:22:46.577Z,14.40
2022-10-19T13:25:16.581Z,14.40
2022-10-19T13:27:44.525Z,14.40
2022-10-19T13:30:30.505Z,14.40
2022-10-19T13:32:57.436Z,14.40
2022-10-19T13:35:24.241Z,14.40
2022-10-19T13:38:10.840Z,14.30
2022-10-19T13:40:38.481Z,14.30
2022-10-19T13:43:20.016Z,14.20
2022-10-19T13:46:06.143Z,14.30
2022-10-19T13:48:39.072Z,14.10
2022-10-19T13:51:12.938Z,14.20
2022-10-19T13:53:47.073Z,14.20
2022-10-19T13:56:22.832Z,14.20
2022-10-19T13:59:14.179Z,14.10
2022-10-19T14:01:56.507Z,14.10
2022-10-19T14:04:37.548Z,14.10
2022-10-19T14:07:11.446Z,14.00
2022-10-19T14:09:54.898Z,14.00
2022-10-19T14:12:26.743Z,13.90
2022-10-19T14:14:54.318Z,13.90
2022-10-19T14:17:24.598Z,13.90
2022-10-19T14:19:54.537Z,13.90
2022-10-19T14:22:33.833Z,13.90
2022-10-19T14:25:03.061Z,13.90
2022-10-19T14:27:30.483Z,13.90
2022-10-19T14:29:57.802Z,13.80
2022-10-19T14:32:27.171Z,13.70
2022-10-19T14:34:54.902Z,13.80
2022-10-19T14:37:26.562Z,13.80
2022-10-19T14:40:05.751Z,13.80
2022-10-19T14:42:37.490Z,13.70
2022-10-19T14:45:06.494Z,13.70
2022-10-19T14:47:34.261Z,13.70
2022-10-19T14:50:03.047Z,13.70
2022-10-19T14:52:32.996Z,13.70
2022-10-19T14:55:12.765Z,13.70
2022-10-19T14:57:43.560Z,13.60
2022-10-19T15:00:18.534Z,13.60
2022-10-19T15:02:47.009Z,13.60
2022-10-19T15:05:20.360Z,13.60
2022-10-19T15:07:47.940Z,13.50
2022-10-19T15:10:20.303Z,13.50
2022-10-19T15:12:47.919Z,13.50
2022-10-19T15:15:24.675Z,13.50
2022-10-19T15:17:53.048Z,13.40
2022-10-19T15:20:25.527Z,13.50
2022-10-19T15:22:52.327Z,13.40
2022-10-19T15:25:37.083Z,13.40
2022-10-19T15:28:22.664Z,13.30
2022-10-19T15:31:00.316Z,13.30
2022-10-19T15:33:28.085Z,13.20
2022-10-19T15:36:04.838Z,13.20
2022-10-19T15:38:32.860Z,13.20
2022-10-19T15:41:00.258Z,13.10
2022-10-19T15:43:30.193Z,13.00
2022-10-19T15:46:12.359Z,12.90
2022-10-19T15:48:42.858Z,12.90
2022-10-19T15:51:24.930Z,12.80
2022-10-19T15:53:52.277Z,12.80
2022-10-19T15:56:19.321Z,12.70
2022-10-19T15:58:50.645Z,12.60
2022-10-19T16:01:18.494Z,12.50
2022-10-19T16:03:45.903Z,12.40
2022-10-19T16:06:13.014Z,12.30
2022-10-19T16:08:39.826Z,12.20
2022-10-19T16:11:09.835Z,12.10
2022-10-19T16:13:36.907Z,12.00
2022-10-19T16:16:10.378Z,11.90
2022-10-19T16:18:39.716Z,11.70
2022-10-19T16:21:06.871Z,11.70
2022-10-19T16:23:39.450Z,11.60
2022-10-19T16:26:08.747Z,11.50
2022-10-19T16:28:36.099Z,11.50
2022-10-19T16:31:02.880Z,11.40
2022-10-19T16:33:30.248Z,11.30
2022-10-19T16:35:57.277Z,11.30
2022-10-19T16:38:24.259Z,11.20
2022-10-19T16:40:51.644Z,11.20
2022-10-19T16:43:18.991Z,11.10
2022-10-19T16:45:51.120Z,11.00
2022-10-19T16:48:24.219Z,10.90
2022-10-19T16:51:14.195Z,10.80
2022-10-19T16:53:44.353Z,10.80
2022-10-19T16:56:15.057Z,10.70
2022-10-19T16:58:42.954Z,10.60
2022-10-19T17:01:10.592Z,10.50
2022-10-19T17:03:37.448Z,10.40
2022-10-19T17:06:05.718Z,10.40
2022-10-19T17:08:37.070Z,10.30
2022-10-19T17:11:21.513Z,10.30
2022-10-19T17:13:49.927Z,10.20
2022-10-19T17:16:17.576Z,10.20
2022-10-19T17:18:44.738Z,10.10
2022-10-19T17:21:19.065Z,10.00
2022-10-19T17:23:46.785Z,10.00
2022-10-19T17:26:13.706Z,9.90
2022-10-19T17:28:40.800Z,9.90
2022-10-19T17:31:09.309Z,9.80
2022-10-19T17:33:36.770Z,9.80
2022-10-19T17:36:08.112Z,9.70
2022-10-19T17:38:36.262Z,9.60
2022-10-19T17:41:04.452Z,9.60
2022-10-19T17:43:31.895Z,9.50
2022-10-19T17:46:03.333Z,9.40
2022-10-19T17:48:30.183Z,9.40
2022-10-19T17:51:07.443Z,9.40
2022-10-19T17:53:34.538Z,9.30
2022-10-19T17:56:02.762Z,9.20
2022-10-19T17:58:30.764Z,9.20
2022-10-19T18:00:58.133Z,9.10
2022-10-19T18:03:26.118Z,9.00
2022-10-19T18:05:57.038Z,9.00
2022-10-19T18:08:24.710Z,9.00
2022-10-19T18:11:02.753Z,8.90
2022-10-19T18:13:30.416Z,8.90
2022-10-19T18:16:01.251Z,8.80
2022-10-19T18:18:28.978Z,8.80
2022-10-19T18:20:59.211Z,8.80
2022-10-19T18:23:26.501Z,8.70
2022-10-19T18:25:54.494Z,8.70
2022-10-19T18:28:22.297Z,8.60
2022-10-19T18:30:49.341Z,8.50
2022-10-19T18:33:16.517Z,8.50
2022-10-19T18:35:43.946Z,8.40
2022-10-19T18:38:11.139Z,8.40
2022-10-19T18:40:40.529Z,8.40
2022-10-19T18:43:07.627Z,8.40
2022-10-19T18:45:34.611Z,8.40
2022-10-19T18:48:01.801Z,8.30
2022-10-19T18:50:29.322Z,8.30
2022-10-19T18:52:56.181Z,8.30
2022-10-19T18:55:23.546Z,8.20
2022-10-19T18:57:50.684Z,8.20
2022-10-19T19:00:17.718Z,8.10
2022-10-19T19:02:47.195Z,8.10
2022-10-19T19:05:14.319Z,8.10
2022-10-19T19:07:43.491Z,8.00
2022-10-19T19:10:10.643Z,8.00
2022-10-19T19:12:38.746Z,7.90
2022-10-19T19:15:08.337Z,7.90
2022-10-19T19:17:35.515Z,7.90
2022-10-19T19:20:02.487Z,7.80
2022-10-19T19:22:29.683Z,7.80
2022-10-19T19:24:57.156Z,7.80
2022-10-19T19:27:27.232Z,7.70
2022-10-19T19:29:58.740Z,7.70
2022-10-19T19:32:25.886Z,7.70
2022-10-19T19:34:54.825Z,7.70
2022-10-19T19:37:21.821Z,7.70
2022-10-19T19:39:48.873Z,7.60
2022-10-19T19:42:16.397Z,7.60
2022-10-19T19:44:43.202Z,7.50
2022-10-19T19:47:10.544Z,7.50
2022-10-19T19:49:37.394Z,7.50
2022-10-19T19:52:04.491Z,7.50
2022-10-19T19:54:31.262Z,7.40
2022-10-19T19:56:58.703Z,7.40
2022-10-19T19:59:25.464Z,7.30
2022-10-19T20:01:52.458Z,7.30
2022-10-19T20:04:20.591Z,7.20
2022-10-19T20:06:48.904Z,7.20
2022-10-19T20:09:15.584Z,7.20
2022-10-19T20:11:44.079Z,7.20
2022-10-19T20:14:13.441Z,7.10
2022-10-19T20:16:40.982Z,7.10
2022-10-19T20:19:12.171Z,7.10
2022-10-19T20:21:39.554Z,7.10
2022-10-19T20:24:07.095Z,7.00
2022-10-19T20:26:34.645Z,7.00
2022-10-19T20:29:02.641Z,7.00
2022-10-19T20:31:30.015Z,7.00
2022-10-19T20:33:59.530Z,6.90
2022-10-19T20:36:26.740Z,6.90
2022-10-19T20:38:58.124Z,6.80
2022-10-19T20:41:25.725Z,6.70
2022-10-19T20:43:54.150Z,6.70
2022-10-19T20:46:22.610Z,6.70
2022-10-19T20:48:50.034Z,6.70
2022-10-19T20:51:25.910Z,6.70
2022-10-19T20:53:56.249Z,6.70
2022-10-19T20:56:25.143Z,6.60
2022-10-19T20:58:55.942Z,6.60
2022-10-19T21:01:23.926Z,6.60
2022-10-19T21:03:55.645Z,6.60
2022-10-19T21:06:24.427Z,6.50
2022-10-19T21:08:52.300Z,6.50
2022-10-19T21:11:26.688Z,6.50
2022-10-19T21:13:55.308Z,6.40
2022-10-19T21:16:23.216Z,6.40
2022-10-19T21:18:50.841Z,6.40
2022-10-19T21:21:18.879Z,6.40
2022-10-19T21:23:46.601Z,6.30
2022-10-19T21:26:13.755Z,6.30
2022-10-19T21:28:41.769Z,6.20
2022-10-19T21:31:09.417Z,6.20
2022-10-19T21:33:36.296Z,6.20
2022-10-19T21:36:04.478Z,6.10
2022-10-19T21:38:31.617Z,6.10
2022-10-19T21:41:03.043Z,6.10
2022-10-19T21:43:29.864Z,6.10
2022-10-19T21:45:56.718Z,6.10
2022-10-19T21:48:24.049Z,6.00
2022-10-19T21:50:50.813Z,6.00
2022-10-19T21:53:19.478Z,6.00
2022-10-19T21:55:46.454Z,6.00
2022-10-19T21:58:13.576Z,6.00
2022-10-19T22:00:40.752Z,6.00
2022-10-19T22:03:07.506Z,6.00
2022-10-19T22:05:34.606Z,5.90
2022-10-19T22:08:02.995Z,5.90
2022-10-19T22:10:29.792Z,5.90
2022-10-19T22:12:57.249Z,5.90
2022-10-19T22:15:24.614Z,5.90
2022-10-19T22:17:54.354Z,5.80
2022-10-19T22:20:21.409Z,5.80
2022-10-19T22:22:50.331Z,5.70
2022-10-19T22:25:19.821Z,5.70
2022-10-19T22:27:46.881Z,5.70
2022-10-19T22:30:13.768Z,5.60
2022-10-19T22:32:40.924Z,5.60
2022-10-19T22:35:08.066Z,5.60
2022-10-19T22:37:34.850Z,5.60
2022-10-19T22:40:01.980Z,5.60
2022-10-19T22:42:28.706Z,5.60
2022-10-19T22:44:56.174Z,5.60
2022-10-19T22:47:22.975Z,5.60
2022-10-19T22:49:49.751Z,5.60
2022-10-19T22:52:17.075Z,5.70
2022-10-19T22:54:43.801Z,5.70
2022-10-19T22:57:12.110Z,5.70
2022-10-19T22:59:38.817Z,5.70
2022-10-19T23:02:05.919Z,5.70
2022-10-19T23:04:33.355Z,5.70
2022-10-19T23:07:00.104Z,5.80
2022-10-19T23:09:27.305Z,5.80
2022-10-19T23:11:54.310Z,5.80
2022-10-19T23:14:21.065Z,5.80
2022-10-19T23:16:48.081Z,5.90
2022-10-19T23:19:15.289Z,5.80
2022-10-19T23:21:42.005Z,5.80
2022-10-19T23:24:09.017Z,5.80
2022-10-19T23:26:36.477Z,5.80
2022-10-19T23:29:03.448Z,5.80
2022-10-19T23:31:31.359Z,5.90
2022-10-19T23:33:58.415Z,5.90
2022-10-19T23:36:27.463Z,5.90
2022-10-19T23:38:55.006Z,5.90
2022-10-19T23:41:22.529Z,5.90
2022-10-19T23:43:49.429Z,5.90
2022-10-19T23:46:16.616Z,5.80
2022-10-19T23:48:43.717Z,5.90
2022-10-19T23:51:15.392Z,5.80
2022-10-19T23:53:43.402Z,5.80
2022-10-19T23:56:12.506Z,5.80
2022-10-19T23:58:39.620Z,5.80
